createdAt,value
2019-03-01T00:02:02.542Z,77.78
2019-03-01T00:04:45.330Z,69.82
2019-03-01T00:07:52.025Z,70.75
2019-03-01T00:10:29.028Z,67.55
2019-03-01T00:13:23.886Z,72.53
2019-03-01T00:16:23.458Z,88.50
2019-03-01T00:19:09.079Z,74.82
2019-03-01T00:22:20.712Z,75.28
2019-03-01T00:25:06.589Z,66.10
2019-03-01T00:27:46.431Z,66.53
2019-03-01T00:31:07.041Z,69.05
2019-03-01T00:34:13.569Z,65.22
2019-03-01T00:36:56.589Z,80.12
2019-03-01T00:40:01.934Z,63.75
2019-03-01T00:42:52.562Z,68.95
2019-03-01T00:45:21.872Z,58.63
2019-03-01T00:47:51.168Z,57.75
2019-03-01T00:50:20.571Z,59.88
2019-03-01T00:52:49.864Z,61.08
2019-03-01T00:55:19.168Z,59.58
2019-03-01T00:57:48.364Z,54.73
2019-03-01T01:00:37.353Z,61.23
2019-03-01T01:03:06.648Z,58.98
2019-03-01T01:05:35.963Z,47.70
2019-03-01T01:08:05.279Z,54.13
2019-03-01T01:10:34.561Z,52.27
2019-03-01T01:13:03.862Z,54.63
2019-03-01T01:15:33.163Z,43.23
2019-03-01T01:18:02.478Z,54.70
2019-03-01T01:20:31.812Z,51.70
2019-03-01T01:23:01.087Z,50.85
2019-03-01T01:25:30.334Z,44.60
2019-03-01T01:27:59.642Z,44.98
2019-03-01T01:30:28.940Z,51.73
2019-03-01T01:32:58.335Z,54.40
2019-03-01T01:35:30.971Z,57.03
2019-03-01T01:38:00.866Z,48.33
2019-03-01T01:40:30.142Z,55.90
2019-03-01T01:42:59.446Z,59.33
2019-03-01T01:45:28.754Z,57.17
2019-03-01T01:47:57.984Z,70.08
2019-03-01T01:50:27.232Z,54.90
2019-03-01T01:52:56.934Z,74.85
2019-03-01T01:55:26.180Z,71.55
2019-03-01T01:57:55.434Z,74.97
2019-03-01T02:00:24.741Z,98.60
2019-03-01T02:02:54.059Z,111.83
2019-03-01T02:05:23.359Z,106.52
2019-03-01T02:07:52.674Z,110.30
2019-03-01T02:10:22.269Z,112.68
2019-03-01T02:12:51.734Z,130.85
2019-03-01T02:15:21.034Z,136.00
2019-03-01T02:17:50.352Z,157.72
2019-03-01T02:20:19.668Z,163.22
2019-03-01T02:22:48.969Z,155.70
2019-03-01T02:25:18.520Z,164.40
2019-03-01T02:27:47.927Z,162.22
2019-03-01T02:30:27.883Z,172.28
2019-03-01T02:32:57.441Z,178.90
2019-03-01T02:35:26.987Z,183.47
2019-03-01T02:37:56.361Z,182.70
2019-03-01T02:40:25.730Z,214.55
2019-03-01T02:42:55.111Z,205.45
2019-03-01T02:45:24.427Z,223.93
2019-03-01T02:47:53.883Z,214.12
2019-03-01T02:50:23.251Z,224.15
2019-03-01T02:52:52.643Z,219.70
2019-03-01T02:55:22.411Z,228.12
2019-03-01T02:58:11.269Z,244.37
2019-03-01T03:00:42.272Z,240.47
2019-03-01T03:03:11.707Z,239.27
2019-03-01T03:05:42.567Z,240.20
2019-03-01T03:08:11.842Z,237.40
2019-03-01T03:10:41.532Z,254.53
2019-03-01T03:13:10.842Z,267.50
2019-03-01T03:15:41.836Z,265.92
2019-03-01T03:18:11.242Z,253.73
2019-03-01T03:20:40.534Z,266.27
2019-03-01T03:23:09.763Z,267.82
2019-03-01T03:25:39.065Z,271.93
2019-03-01T03:28:08.375Z,261.90
2019-03-01T03:30:37.791Z,280.35
2019-03-01T03:33:07.097Z,265.00
2019-03-01T03:35:36.460Z,274.42
2019-03-01T03:38:06.024Z,282.45
2019-03-01T03:40:35.451Z,273.62
2019-03-01T03:43:04.884Z,225.28
2019-03-01T03:45:34.182Z,218.02
2019-03-01T03:48:03.514Z,221.70
2019-03-01T03:50:33.735Z,220.27
2019-03-01T03:53:02.965Z,185.70
2019-03-01T03:55:32.875Z,190.43
2019-03-01T03:58:02.110Z,166.12
2019-03-01T04:00:31.484Z,163.40
2019-03-01T04:03:00.986Z,153.70
2019-03-01T04:05:30.420Z,140.82
2019-03-01T04:07:59.713Z,130.97
2019-03-01T04:10:29.167Z,135.37
2019-03-01T04:12:58.477Z,132.12
2019-03-01T04:15:27.772Z,129.38
2019-03-01T04:17:57.089Z,153.00
2019-03-01T04:20:26.339Z,160.72
2019-03-01T04:22:55.749Z,188.70
2019-03-01T04:25:25.145Z,176.45
2019-03-01T04:27:54.601Z,212.95
2019-03-01T04:30:24.698Z,246.00
2019-03-01T04:32:54.817Z,232.18
2019-03-01T04:35:24.147Z,216.38
2019-03-01T04:37:53.464Z,278.32
2019-03-01T04:40:23.767Z,239.60
2019-03-01T04:42:53.332Z,279.48
2019-03-01T04:45:22.699Z,301.95
2019-03-01T04:47:52.014Z,285.82
2019-03-01T04:50:21.416Z,299.10
2019-03-01T04:52:50.799Z,269.68
2019-03-01T04:55:23.629Z,362.55
2019-03-01T04:57:53.009Z,299.48
2019-03-01T05:00:27.113Z,311.48
2019-03-01T05:02:56.449Z,363.07
2019-03-01T05:05:25.919Z,370.80
2019-03-01T05:07:55.391Z,314.80
2019-03-01T05:10:24.926Z,303.60
2019-03-01T05:12:54.391Z,312.77
2019-03-01T05:15:26.702Z,364.42
2019-03-01T05:17:56.091Z,345.65
2019-03-01T05:20:25.430Z,333.27
2019-03-01T05:22:54.770Z,380.18
2019-03-01T05:25:24.174Z,355.83
2019-03-01T05:27:53.638Z,302.73
2019-03-01T05:30:23.025Z,355.00
2019-03-01T05:32:52.413Z,329.77
2019-03-01T05:35:21.818Z,366.25
2019-03-01T05:37:51.839Z,352.05
2019-03-01T05:40:21.303Z,273.80
2019-03-01T05:42:50.693Z,257.90
2019-03-01T05:45:27.048Z,255.15
2019-03-01T05:47:56.716Z,271.40
2019-03-01T05:50:28.990Z,287.40
2019-03-01T05:53:00.405Z,310.95
2019-03-01T05:55:30.775Z,278.95
2019-03-01T05:58:34.532Z,255.85
2019-03-01T06:01:12.334Z,293.23
2019-03-01T06:04:02.680Z,253.18
2019-03-01T06:06:43.751Z,306.00
2019-03-01T06:09:32.721Z,297.70
2019-03-01T06:12:41.087Z,253.00
2019-03-01T06:15:35.790Z,232.60
2019-03-01T06:18:48.036Z,268.23
2019-03-01T06:21:38.645Z,251.52
2019-03-01T06:24:30.386Z,297.45
2019-03-01T06:27:19.296Z,252.03
2019-03-01T06:30:15.058Z,247.02
2019-03-01T06:32:58.186Z,292.02
2019-03-01T06:35:59.122Z,260.77
2019-03-01T06:39:01.534Z,264.27
2019-03-01T06:41:59.678Z,255.43
2019-03-01T06:44:36.730Z,218.15
2019-03-01T06:47:30.180Z,240.22
2019-03-01T06:50:07.307Z,300.35
2019-03-01T06:52:37.403Z,342.77
2019-03-01T06:55:28.538Z,345.50
2019-03-01T06:58:01.350Z,347.20
2019-03-01T07:00:36.240Z,284.07
2019-03-01T07:03:05.703Z,389.12
2019-03-01T07:05:37.725Z,340.68
2019-03-01T07:08:07.633Z,378.18
2019-03-01T07:10:42.079Z,403.02
2019-03-01T07:13:13.215Z,363.85
2019-03-01T07:15:44.505Z,332.48
2019-03-01T07:18:14.128Z,375.25
2019-03-01T07:20:45.246Z,346.55
2019-03-01T07:23:16.927Z,367.90
2019-03-01T07:25:46.532Z,370.77
2019-03-01T07:28:17.759Z,391.80
2019-03-01T07:30:51.387Z,439.02
2019-03-01T07:33:23.946Z,385.00
2019-03-01T07:35:53.638Z,421.98
2019-03-01T07:38:24.460Z,510.50
2019-03-01T07:40:54.189Z,434.07
2019-03-01T07:43:25.763Z,513.87
2019-03-01T07:45:57.193Z,418.25
2019-03-01T07:48:29.558Z,357.15
2019-03-01T07:51:02.434Z,403.10
2019-03-01T07:53:36.152Z,435.90
2019-03-01T07:56:06.895Z,382.55
2019-03-01T07:58:42.426Z,405.15
2019-03-01T08:01:14.640Z,387.88
2019-03-01T08:03:49.796Z,370.37
2019-03-01T08:06:45.591Z,356.00
2019-03-01T08:09:16.870Z,360.70
2019-03-01T08:11:50.491Z,407.55
2019-03-01T08:17:34.928Z,445.38
2019-03-01T08:20:21.100Z,375.45
2019-03-01T08:23:02.142Z,395.03
2019-03-01T08:25:48.871Z,394.37
2019-03-01T08:28:28.772Z,365.40
2019-03-01T08:40:21.762Z,375.87
2019-03-01T08:43:16.755Z,348.65
2019-03-01T08:45:52.260Z,377.25
2019-03-01T08:48:23.706Z,401.60
2019-03-01T08:50:54.321Z,425.62
2019-03-01T08:53:23.731Z,389.10
2019-03-01T08:55:53.054Z,356.43
2019-03-01T08:58:22.478Z,308.32
2019-03-01T09:00:59.328Z,280.32
2019-03-01T09:03:41.591Z,213.12
2019-03-01T09:06:12.961Z,149.15
2019-03-01T09:08:46.961Z,89.75
2019-03-01T09:11:18.304Z,72.97
2019-03-01T09:13:48.900Z,57.93
2019-03-01T09:16:22.794Z,56.90
2019-03-01T09:18:53.326Z,51.68
2019-03-01T09:21:54.546Z,39.33
2019-03-01T09:24:28.875Z,44.18
2019-03-01T09:27:04.054Z,39.27
2019-03-01T09:29:41.707Z,42.60
2019-03-01T09:35:17.344Z,35.78
2019-03-01T09:37:52.934Z,44.67
2019-03-01T09:40:30.427Z,37.20
2019-03-01T09:43:01.806Z,45.98
2019-03-01T09:48:28.453Z,44.58
2019-03-01T09:54:10.272Z,60.15
2019-03-01T09:56:55.045Z,56.75
2019-03-01T09:59:30.409Z,50.08
2019-03-01T10:04:58.877Z,51.98
2019-03-01T10:07:29.625Z,42.70
2019-03-01T10:10:00.243Z,44.08
2019-03-01T10:12:30.593Z,40.63
2019-03-01T10:17:59.916Z,39.03
2019-03-01T10:20:35.559Z,42.25
2019-03-01T10:23:10.518Z,37.15
2019-03-01T10:25:41.771Z,37.10
2019-03-01T10:28:17.053Z,29.85
2019-03-01T10:30:46.453Z,37.15
2019-03-01T10:33:15.827Z,25.02
2019-03-01T10:35:45.135Z,30.05
2019-03-01T10:38:14.606Z,32.67
2019-03-01T10:40:43.940Z,34.85
2019-03-01T10:43:13.599Z,32.30
2019-03-01T10:45:43.538Z,29.63
2019-03-01T10:48:12.881Z,36.83
2019-03-01T10:50:42.881Z,36.68
2019-03-01T10:53:12.517Z,31.33
2019-03-01T10:55:42.824Z,41.95
2019-03-01T10:58:15.160Z,38.00
2019-03-01T11:00:45.688Z,39.08
2019-03-01T11:03:15.254Z,33.05
2019-03-01T11:05:44.840Z,34.43
2019-03-01T11:08:14.408Z,39.20
2019-03-01T11:10:44.359Z,38.60
2019-03-01T11:13:18.800Z,35.13
2019-03-01T11:15:48.510Z,37.83
2019-03-01T11:18:18.052Z,38.58
2019-03-01T11:20:47.609Z,36.50
2019-03-01T11:23:17.654Z,35.83
2019-03-01T11:25:47.406Z,38.30
2019-03-01T11:28:16.984Z,44.60
2019-03-01T11:30:48.495Z,40.60
2019-03-01T11:33:18.295Z,36.85
2019-03-01T11:35:47.956Z,33.42
2019-03-01T11:38:17.531Z,42.45
2019-03-01T11:40:47.241Z,34.58
2019-03-01T11:43:17.152Z,31.82
2019-03-01T11:45:46.849Z,29.05
2019-03-01T11:48:20.738Z,30.08
2019-03-01T11:50:51.344Z,28.70
2019-03-01T11:53:21.174Z,27.58
2019-03-01T11:55:50.878Z,25.85
2019-03-01T11:58:20.600Z,24.72
2019-03-01T12:00:55.771Z,25.88
2019-03-01T12:03:25.533Z,21.42
2019-03-01T12:05:55.210Z,21.73
2019-03-01T12:08:26.126Z,22.77
2019-03-01T12:10:56.130Z,19.00
2019-03-01T12:13:25.619Z,14.07
2019-03-01T12:15:56.007Z,14.83
2019-03-01T12:18:25.631Z,18.05
2019-03-01T12:20:55.712Z,9.10
2019-03-01T12:23:27.141Z,10.63
2019-03-01T12:25:56.710Z,9.90
2019-03-01T12:28:27.185Z,11.63
2019-03-01T12:30:57.954Z,6.37
2019-03-01T12:33:27.591Z,10.65
2019-03-01T12:36:00.008Z,7.00
2019-03-01T12:38:31.057Z,7.37
2019-03-01T12:41:01.562Z,6.78
2019-03-01T12:43:31.178Z,8.80
2019-03-01T12:46:01.477Z,8.60
2019-03-01T12:48:31.115Z,7.67
2019-03-01T12:51:01.667Z,8.63
2019-03-01T12:53:32.902Z,7.45
2019-03-01T12:56:02.457Z,6.90
2019-03-01T12:58:32.064Z,6.55
2019-03-01T13:01:02.986Z,8.00
2019-03-01T13:03:33.182Z,5.40
2019-03-01T13:06:06.973Z,6.28
2019-03-01T13:08:36.560Z,2.47
2019-03-01T13:11:06.741Z,3.37
2019-03-01T13:13:39.943Z,4.75
2019-03-01T13:16:10.179Z,1.87
2019-03-01T13:18:39.614Z,4.08
2019-03-01T13:21:12.949Z,2.37
2019-03-01T13:23:41.361Z,3.05
2019-03-01T13:26:11.213Z,2.17
2019-03-01T13:28:40.621Z,4.53
2019-03-01T13:31:11.385Z,5.83
2019-03-01T13:33:41.943Z,4.00
2019-03-01T13:36:13.271Z,5.67
2019-03-01T13:38:43.697Z,2.65
2019-03-01T13:41:13.818Z,2.60
2019-03-01T13:43:43.614Z,3.02
2019-03-01T13:46:15.637Z,4.35
2019-03-01T13:52:19.230Z,3.52
2019-03-01T13:54:52.240Z,2.35
2019-03-01T13:57:35.738Z,3.62
2019-03-01T14:00:11.151Z,3.37
2019-03-01T14:02:43.038Z,3.58
2019-03-01T14:05:18.214Z,2.77
2019-03-01T14:19:27.259Z,4.03
2019-03-01T14:24:30.765Z,1.72
2019-03-01T14:27:00.480Z,1.80
2019-03-01T14:29:41.891Z,4.20
2019-03-01T14:32:20.842Z,3.52
2019-03-01T14:35:15.531Z,2.50
2019-03-01T14:38:08.279Z,2.33
2019-03-01T14:40:59.648Z,3.08
2019-03-01T14:43:28.710Z,1.85
2019-03-01T14:46:06.874Z,4.40
2019-03-01T14:48:39.703Z,2.92
2019-03-01T14:51:10.817Z,2.75
2019-03-01T14:53:44.398Z,3.35
2019-03-01T14:56:25.307Z,4.45
2019-03-01T14:58:59.862Z,3.47
2019-03-01T15:01:49.732Z,4.22
2019-03-01T15:04:19.479Z,4.47
2019-03-01T15:06:51.479Z,3.72
2019-03-01T15:09:22.045Z,3.75
2019-03-01T15:11:52.142Z,5.87
2019-03-01T15:15:01.557Z,2.50
2019-03-01T15:17:31.786Z,3.27
2019-03-01T15:20:03.393Z,6.37
2019-03-01T15:22:33.156Z,6.40
2019-03-01T15:25:03.867Z,4.67
2019-03-01T15:27:39.851Z,3.15
2019-03-01T15:30:17.767Z,4.50
2019-03-01T15:32:48.425Z,3.00
2019-03-01T15:35:19.680Z,2.98
2019-03-01T15:37:51.068Z,6.40
2019-03-01T15:40:20.915Z,5.87
2019-03-01T15:42:51.445Z,3.22
2019-03-01T15:45:24.230Z,3.60
2019-03-01T15:47:53.939Z,4.87
2019-03-01T15:53:31.807Z,4.95
2019-03-01T16:02:16.120Z,3.72
2019-03-01T16:13:51.852Z,7.58
2019-03-01T16:22:29.853Z,8.20
2019-03-01T16:30:56.821Z,8.33
2019-03-01T16:33:46.277Z,3.92
2019-03-01T16:37:00.083Z,7.90
2019-03-01T16:42:26.316Z,5.75
2019-03-01T16:45:02.903Z,3.37
2019-03-01T16:50:24.368Z,3.22
2019-03-01T16:52:58.167Z,4.20
2019-03-01T16:55:31.868Z,3.92
2019-03-01T16:58:07.386Z,2.85
2019-03-01T17:00:36.976Z,3.62
2019-03-01T17:09:54.870Z,2.33
2019-03-01T17:12:27.481Z,3.75
2019-03-01T17:15:05.909Z,3.85
2019-03-01T17:17:38.333Z,4.60
2019-03-01T17:20:11.335Z,5.72
2019-03-01T17:22:41.893Z,3.95
2019-03-01T17:25:15.603Z,2.95
2019-03-01T17:27:50.123Z,4.20
2019-03-01T17:30:24.290Z,2.65
2019-03-01T17:32:55.420Z,5.08
2019-03-01T17:35:25.931Z,4.10
2019-03-01T17:37:56.815Z,4.35
2019-03-01T17:40:29.339Z,4.62
2019-03-01T17:42:58.044Z,7.22
2019-03-01T17:45:29.272Z,6.60
2019-03-01T17:47:58.924Z,9.28
2019-03-01T17:53:43.017Z,4.53
2019-03-01T17:56:12.310Z,5.80
2019-03-01T17:58:43.638Z,6.17
2019-03-01T18:01:14.436Z,8.13
2019-03-01T18:03:44.314Z,12.15
2019-03-01T18:06:41.583Z,8.38
2019-03-01T18:12:48.013Z,9.78
2019-03-01T18:15:18.434Z,7.30
2019-03-01T18:20:47.177Z,10.00
2019-03-01T18:32:30.280Z,7.03
2019-03-01T18:35:11.468Z,9.53
2019-03-01T18:37:55.096Z,8.25
2019-03-01T18:40:56.159Z,11.73
2019-03-01T18:43:35.390Z,18.05
2019-03-01T18:46:20.459Z,18.30
2019-03-01T18:48:49.912Z,13.55
2019-03-01T18:51:29.078Z,7.58
2019-03-01T18:54:12.427Z,9.43
2019-03-01T18:56:47.835Z,11.00
2019-03-01T19:09:21.105Z,10.78
2019-03-01T19:12:29.475Z,8.55
2019-03-01T19:18:18.421Z,12.80
2019-03-01T19:21:09.349Z,11.93
2019-03-01T19:23:50.360Z,8.43
2019-03-01T19:26:42.386Z,13.53
2019-03-01T19:29:19.702Z,11.28
2019-03-01T19:32:05.827Z,13.72
2019-03-01T19:40:43.389Z,9.93
2019-03-01T19:43:13.171Z,13.32
2019-03-01T19:45:42.741Z,11.57
2019-03-01T19:48:12.512Z,11.10
2019-03-01T19:50:43.586Z,8.65
2019-03-01T19:53:13.388Z,9.35
2019-03-01T19:55:43.948Z,13.50
2019-03-01T19:58:16.788Z,10.78
2019-03-01T20:00:46.514Z,12.55
2019-03-01T20:03:16.042Z,8.65
2019-03-01T20:05:45.699Z,8.23
2019-03-01T20:08:15.362Z,10.25
2019-03-01T20:10:47.642Z,9.30
2019-03-01T20:13:25.732Z,7.42
2019-03-01T20:16:03.628Z,8.93
2019-03-01T20:18:36.291Z,6.53
2019-03-01T20:21:10.539Z,10.08
2019-03-01T20:23:42.409Z,9.33
2019-03-01T20:26:14.291Z,14.45
2019-03-01T20:28:43.931Z,7.60
2019-03-01T20:31:15.224Z,10.25
2019-03-01T20:33:44.948Z,9.20
2019-03-01T20:36:17.690Z,9.70
2019-03-01T20:38:45.687Z,10.25
2019-03-01T20:41:15.378Z,10.55
2019-03-01T20:43:44.871Z,11.70
2019-03-01T20:46:14.750Z,12.18
2019-03-01T20:48:44.408Z,11.12
2019-03-01T20:51:16.059Z,10.15
2019-03-01T20:53:49.329Z,13.62
2019-03-01T20:56:17.207Z,15.53
2019-03-01T20:58:46.744Z,9.58
2019-03-01T21:01:16.341Z,8.85
2019-03-01T21:03:46.774Z,10.55
2019-03-01T21:06:16.214Z,7.30
2019-03-01T21:08:45.615Z,11.10
2019-03-01T21:11:15.247Z,8.75
2019-03-01T21:13:49.112Z,13.13
2019-03-01T21:16:17.568Z,10.68
2019-03-01T21:18:47.742Z,13.05
2019-03-01T21:21:22.123Z,10.23
2019-03-01T21:23:54.320Z,11.80
2019-03-01T21:26:24.135Z,11.22
2019-03-01T21:28:53.761Z,10.95
2019-03-01T21:31:23.146Z,11.65
2019-03-01T21:33:52.617Z,12.28
2019-03-01T21:36:22.911Z,10.88
2019-03-01T21:38:53.288Z,11.70
2019-03-01T21:41:22.825Z,13.83
2019-03-01T21:43:52.369Z,9.20
2019-03-01T21:46:22.340Z,13.22
2019-03-01T21:48:52.013Z,9.98
2019-03-01T21:51:21.510Z,10.80
2019-03-01T21:53:51.720Z,11.70
2019-03-01T21:56:21.220Z,15.55
2019-03-01T21:58:51.331Z,11.78
2019-03-01T22:01:20.871Z,14.25
2019-03-01T22:03:50.429Z,14.85
2019-03-01T22:06:20.590Z,12.10
2019-03-01T22:08:51.038Z,13.13
2019-03-01T22:11:20.987Z,11.22
2019-03-01T22:13:50.422Z,13.05
2019-03-01T22:16:19.863Z,17.55
2019-03-01T22:18:49.570Z,11.18
2019-03-01T22:21:22.594Z,12.58
2019-03-01T22:23:51.531Z,12.68
2019-03-01T22:26:21.758Z,11.80
2019-03-01T22:28:51.172Z,13.45
2019-03-01T22:31:20.558Z,16.23
2019-03-01T22:33:52.622Z,15.53
2019-03-01T22:36:21.212Z,15.08
2019-03-01T22:38:50.643Z,15.45
2019-03-01T22:41:20.037Z,15.55
2019-03-01T22:43:49.430Z,16.65
2019-03-01T22:46:20.996Z,14.53
2019-03-01T22:48:56.155Z,18.00
2019-03-01T22:51:21.303Z,16.55
2019-03-01T22:53:51.404Z,14.93
2019-03-01T22:56:23.071Z,16.87
2019-03-01T22:59:00.111Z,19.15
2019-03-01T23:01:32.719Z,15.38
2019-03-01T23:04:02.674Z,18.50
2019-03-01T23:06:32.179Z,16.62
2019-03-01T23:09:03.460Z,17.87
2019-03-01T23:11:33.701Z,16.32
2019-03-01T23:14:03.182Z,14.68
2019-03-01T23:16:32.682Z,16.48
2019-03-01T23:19:02.431Z,16.73
2019-03-01T23:21:32.673Z,17.15
2019-03-01T23:24:03.333Z,16.50
2019-03-01T23:26:32.804Z,18.00
2019-03-01T23:29:02.255Z,15.25
2019-03-01T23:31:31.922Z,21.45
2019-03-01T23:34:03.617Z,20.90
2019-03-01T23:36:32.462Z,21.07
2019-03-01T23:39:02.043Z,24.77
2019-03-01T23:41:31.998Z,20.52
2019-03-01T23:44:02.808Z,18.75
2019-03-01T23:46:33.620Z,22.73
2019-03-01T23:49:06.498Z,22.40
2019-03-01T23:51:35.942Z,20.97
2019-03-01T23:54:05.637Z,28.47
2019-03-01T23:56:36.586Z,25.40
2019-03-01T23:59:06.015Z,28.62
